createdAt,value
2022-10-14T00:01:34.764Z,98744.91
2022-10-14T00:04:01.772Z,98737.78
2022-10-14T00:06:31.357Z,98738.59
2022-10-14T00:09:02.628Z,98732.31
2022-10-14T00:11:30.886Z,98737.78
2022-10-14T00:13:59.976Z,98730.69
2022-10-14T00:16:31.719Z,98721.66
2022-10-14T00:18:58.902Z,98722.72
2022-10-14T00:21:26.488Z,98726.28
2022-10-14T00:23:53.463Z,98714.75
2022-10-14T00:26:22.527Z,98718.31
2022-10-14T00:28:49.668Z,98720.22
2022-10-14T00:31:17.155Z,98709.28
2022-10-14T00:33:44.230Z,98707.63
2022-10-14T00:36:12.972Z,98713.09
2022-10-14T00:38:40.047Z,98708.72
2022-10-14T00:41:07.336Z,98717.72
2022-10-14T00:43:53.126Z,98716.66
2022-10-14T00:46:20.284Z,98712.03
2022-10-14T00:48:47.280Z,98724.00
2022-10-14T00:51:14.270Z,98715.59
2022-10-14T00:53:42.589Z,98709.28
2022-10-14T00:56:13.107Z,98703.84
2022-10-14T00:58:40.064Z,98708.47
2022-10-14T01:01:08.297Z,98707.63
2022-10-14T01:03:35.365Z,98699.69
2022-10-14T01:06:21.323Z,98700.53
2022-10-14T01:09:37.052Z,98697.81
2022-10-14T01:12:41.331Z,98697.81
2022-10-14T01:15:49.156Z,98690.91
2022-10-14T01:19:03.382Z,98687.94
2022-10-14T01:21:55.967Z,98697.19
2022-10-14T01:24:36.825Z,98691.97
2022-10-14T01:27:25.647Z,98694.69
2022-10-14T01:30:18.382Z,98698.25
2022-10-14T01:33:03.389Z,98690.91
2022-10-14T01:35:52.708Z,98690.06
2022-10-14T01:38:43.029Z,98689.22
2022-10-14T01:41:15.204Z,98695.53
2022-10-14T01:43:42.192Z,98691.72
2022-10-14T01:46:09.359Z,98690.91
2022-10-14T01:48:37.459Z,98679.16
2022-10-14T01:51:07.348Z,98684.59
2022-10-14T01:53:38.104Z,98682.13
2022-10-14T01:56:07.340Z,98677.50
2022-10-14T01:58:34.429Z,98679.16
2022-10-14T02:01:04.155Z,98678.56
2022-10-14T02:03:44.789Z,98676.69
2022-10-14T02:06:27.771Z,98672.06
2022-10-14T02:09:06.673Z,98664.09
2022-10-14T02:12:05.765Z,98658.63
2022-10-14T02:14:52.301Z,98662.44
2022-10-14T02:17:19.191Z,98658.63
2022-10-14T02:19:49.120Z,98652.56
2022-10-14T02:22:40.971Z,98656.97
2022-10-14T02:25:21.511Z,98652.34
2022-10-14T02:27:48.762Z,98643.94
2022-10-14T02:30:15.998Z,98648.56
2022-10-14T02:32:42.935Z,98649.41
2022-10-14T02:35:10.418Z,98648.31
2022-10-14T02:37:37.522Z,98650.22
2022-10-14T02:40:29.457Z,98643.09
2022-10-14T02:42:56.402Z,98650.22
2022-10-14T02:45:25.923Z,98641.44
2022-10-14T02:47:53.278Z,98646.88
2022-10-14T02:50:21.017Z,98652.34
2022-10-14T02:52:48.036Z,98646.06
2022-10-14T02:55:15.074Z,98650.69
2022-10-14T02:57:42.312Z,98646.06
2022-10-14T03:00:09.830Z,98649.84
2022-10-14T03:02:36.906Z,98642.75
2022-10-14T03:05:04.045Z,98642.75
2022-10-14T03:07:31.018Z,98647.38
2022-10-14T03:09:58.646Z,98645.69
2022-10-14T03:12:26.010Z,98641.91
2022-10-14T03:14:52.989Z,98636.47
2022-10-14T03:17:20.056Z,98638.09
2022-10-14T03:19:47.013Z,98635.38
2022-10-14T03:22:14.010Z,98638.09
2022-10-14T03:24:40.973Z,98637.88
2022-10-14T03:27:07.921Z,98634.31
2022-10-14T03:29:34.906Z,98631.00
2022-10-14T03:32:01.857Z,98627.19
2022-10-14T03:34:28.830Z,98626.38
2022-10-14T03:36:55.785Z,98630.75
2022-10-14T03:39:22.794Z,98631.84
2022-10-14T03:41:49.799Z,98629.91
2022-10-14T03:44:16.775Z,98629.91
2022-10-14T03:46:43.815Z,98632.06
2022-10-14T03:49:10.760Z,98635.38
2022-10-14T03:51:38.098Z,98636.47
2022-10-14T03:54:05.123Z,98629.34
2022-10-14T03:56:32.120Z,98625.53
2022-10-14T03:58:59.129Z,98620.31
2022-10-14T04:01:26.156Z,98623.88
2022-10-14T04:03:53.157Z,98614.03
2022-10-14T04:06:20.144Z,98622.22
2022-10-14T04:08:47.106Z,98621.38
2022-10-14T04:11:14.032Z,98618.41
2022-10-14T04:13:41.012Z,98620.09
2022-10-14T04:16:08.854Z,98622.81
2022-10-14T04:18:36.152Z,98622.81
2022-10-14T04:21:04.435Z,98625.53
2022-10-14T04:23:31.419Z,98622.56
2022-10-14T04:25:58.391Z,98620.66
2022-10-14T04:28:25.433Z,98619.00
2022-10-14T04:30:52.488Z,98616.28
2022-10-14T04:33:19.429Z,98617.09
2022-10-14T04:35:46.409Z,98615.47
2022-10-14T04:38:13.325Z,98615.22
2022-10-14T04:40:40.286Z,98617.94
2022-10-14T04:43:07.266Z,98608.09
2022-10-14T04:45:34.285Z,98606.44
2022-10-14T04:48:01.280Z,98615.69
2022-10-14T04:50:28.277Z,98611.31
2022-10-14T04:52:55.213Z,98606.69
2022-10-14T04:55:22.223Z,98603.13
2022-10-14T04:57:49.189Z,98600.38
2022-10-14T05:00:16.324Z,98598.72
2022-10-14T05:02:43.340Z,98603.13
2022-10-14T05:05:10.306Z,98594.09
2022-10-14T05:07:37.370Z,98591.38
2022-10-14T05:10:04.945Z,98600.38
2022-10-14T05:12:32.295Z,98603.13
2022-10-14T05:14:59.379Z,98590.53
2022-10-14T05:17:26.329Z,98598.72
2022-10-14T05:19:53.333Z,98598.72
2022-10-14T05:22:20.544Z,98590.53
2022-10-14T05:24:47.794Z,98594.09
2022-10-14T05:27:14.760Z,98590.53
2022-10-14T05:29:41.770Z,98586.97
2022-10-14T05:32:08.779Z,98592.44
2022-10-14T05:34:36.134Z,98595.16
2022-10-14T05:37:03.489Z,98597.09
2022-10-14T05:39:30.904Z,98586.16
2022-10-14T05:41:57.849Z,98594.34
2022-10-14T05:44:24.980Z,98598.72
2022-10-14T05:46:51.954Z,98591.63
2022-10-14T05:49:18.976Z,98591.84
2022-10-14T05:51:45.965Z,98597.09
2022-10-14T05:54:13.059Z,98598.97
2022-10-14T05:56:40.039Z,98595.16
2022-10-14T05:59:07.046Z,98598.72
2022-10-14T06:01:36.657Z,98602.28
2022-10-14T06:04:03.760Z,98607.75
2022-10-14T06:06:30.792Z,98598.72
2022-10-14T06:08:57.875Z,98600.38
2022-10-14T06:11:24.809Z,98605.00
2022-10-14T06:13:52.637Z,98606.91
2022-10-14T06:16:19.565Z,98606.06
2022-10-14T06:18:48.928Z,98600.63
2022-10-14T06:21:19.208Z,98602.53
2022-10-14T06:23:46.115Z,98609.63
2022-10-14T06:26:13.043Z,98604.19
2022-10-14T06:28:40.081Z,98608.78
2022-10-14T06:31:07.168Z,98612.13
2022-10-14T06:33:34.365Z,98606.69
2022-10-14T06:36:05.146Z,98604.78
2022-10-14T06:38:32.177Z,98601.00
2022-10-14T06:40:59.133Z,98600.38
2022-10-14T06:43:26.123Z,98606.69
2022-10-14T06:45:53.103Z,98603.13
2022-10-14T06:48:20.128Z,98608.91
2022-10-14T06:50:47.094Z,98610.81
2022-10-14T06:53:14.098Z,98615.22
2022-10-14T06:55:41.127Z,98612.47
2022-10-14T06:58:08.060Z,98618.53
2022-10-14T07:00:35.055Z,98615.81
2022-10-14T07:03:02.085Z,98613.66
2022-10-14T07:05:29.255Z,98607.38
2022-10-14T07:07:58.322Z,98616.16
2022-10-14T07:10:25.331Z,98617.00
2022-10-14T07:12:55.989Z,98613.22
2022-10-14T07:15:23.253Z,98613.22
2022-10-14T07:17:50.187Z,98614.06
2022-10-14T07:20:17.239Z,98617.59
2022-10-14T07:22:44.632Z,98612.97
2022-10-14T07:25:11.842Z,98620.91
2022-10-14T07:27:38.889Z,98623.66
2022-10-14T07:30:06.392Z,98631.59
2022-10-14T07:32:37.310Z,98625.31
2022-10-14T07:35:04.499Z,98624.47
2022-10-14T07:37:31.497Z,98624.25
2022-10-14T07:39:58.589Z,98617.72
2022-10-14T07:42:25.612Z,98620.22
2022-10-14T07:44:54.434Z,98614.53
2022-10-14T07:47:22.027Z,98624.34
2022-10-14T07:49:49.294Z,98625.44
2022-10-14T07:52:16.240Z,98623.53
2022-10-14T07:54:43.262Z,98620.56
2022-10-14T07:57:10.216Z,98616.16
2022-10-14T07:59:37.268Z,98617.25
2022-10-14T08:02:04.438Z,98618.88
2022-10-14T08:04:31.508Z,98626.00
2022-10-14T08:06:58.472Z,98623.28
2022-10-14T08:11:57.346Z,98623.06
2022-10-14T08:14:24.344Z,98623.06
2022-10-14T08:16:51.283Z,98623.06
2022-10-14T08:19:18.496Z,98630.19
2022-10-14T08:21:45.402Z,98629.34
2022-10-14T08:24:12.540Z,98625.56
2022-10-14T08:26:50.186Z,98625.56
2022-10-14T08:29:17.420Z,98625.56
2022-10-14T08:31:44.461Z,98619.00
2022-10-14T08:34:11.873Z,98626.97
2022-10-14T08:36:38.943Z,98623.41
2022-10-14T08:39:06.697Z,98625.06
2022-10-14T08:41:58.762Z,98632.19
2022-10-14T08:44:31.454Z,98620.19
2022-10-14T08:47:03.392Z,98616.41
2022-10-14T08:49:53.563Z,98623.28
2022-10-14T08:52:28.188Z,98612.38
2022-10-14T08:54:58.049Z,98612.13
2022-10-14T08:57:30.006Z,98613.78
2022-10-14T08:59:56.950Z,98614.63
2022-10-14T09:02:29.715Z,98622.81
2022-10-14T09:04:57.509Z,98615.47
2022-10-14T09:07:24.544Z,98617.13
2022-10-14T09:09:57.337Z,98616.28
2022-10-14T09:12:28.851Z,98614.41
2022-10-14T09:15:06.806Z,98616.03
2022-10-14T09:17:40.030Z,98616.03
2022-10-14T09:20:21.625Z,98617.69
2022-10-14T09:23:06.788Z,98614.13
2022-10-14T09:25:34.945Z,98618.53
2022-10-14T09:28:02.032Z,98617.69
2022-10-14T09:30:30.354Z,98623.16
2022-10-14T09:32:57.650Z,98624.81
2022-10-14T09:35:32.647Z,98628.38
2022-10-14T09:37:59.728Z,98626.50
2022-10-14T09:40:36.446Z,98624.81
2022-10-14T09:43:09.567Z,98622.66
2022-10-14T09:45:59.998Z,98616.41
2022-10-14T09:48:32.563Z,98619.94
2022-10-14T09:51:01.413Z,98629.81
2022-10-14T09:53:37.699Z,98618.91
2022-10-14T09:56:06.662Z,98619.75
2022-10-14T09:58:39.085Z,98624.38
2022-10-14T10:01:06.446Z,98616.19
2022-10-14T10:03:35.330Z,98620.56
2022-10-14T10:06:07.675Z,98615.13
2022-10-14T10:08:42.595Z,98617.63
2022-10-14T10:11:14.052Z,98611.06
2022-10-14T10:13:46.553Z,98614.63
2022-10-14T10:16:22.301Z,98615.47
2022-10-14T10:18:50.111Z,98608.94
2022-10-14T10:21:26.633Z,98619.63
2022-10-14T10:23:57.675Z,98615.00
2022-10-14T10:26:31.789Z,98609.53
2022-10-14T10:28:59.682Z,98606.81
2022-10-14T10:31:51.311Z,98600.25
2022-10-14T10:34:36.623Z,98603.81
2022-10-14T10:37:08.773Z,98589.34
2022-10-14T10:39:41.829Z,98595.63
2022-10-14T10:42:31.109Z,98594.56
2022-10-14T10:45:11.424Z,98593.50
2022-10-14T10:47:45.806Z,98593.50
2022-10-14T10:50:31.010Z,98584.25
2022-10-14T10:53:12.015Z,98591.34
2022-10-14T10:55:49.642Z,98588.03
2022-10-14T10:58:42.870Z,98584.25
2022-10-14T11:01:31.365Z,98580.44
2022-10-14T11:04:32.889Z,98575.78
2022-10-14T11:07:33.741Z,98565.72
2022-10-14T11:10:47.262Z,98570.94
2022-10-14T11:13:38.960Z,98569.03
2022-10-14T11:16:33.661Z,98562.25
2022-10-14T11:19:36.009Z,98562.25
2022-10-14T11:22:17.751Z,98565.00
2022-10-14T11:24:54.928Z,98563.94
2022-10-14T11:27:47.506Z,98562.03
2022-10-14T11:30:17.746Z,98560.13
2022-10-14T11:33:16.015Z,98558.81
2022-10-14T11:35:51.713Z,98553.34
2022-10-14T11:38:39.639Z,98555.00
2022-10-14T11:41:40.571Z,98556.66
2022-10-14T11:44:22.029Z,98545.75
2022-10-14T11:46:52.137Z,98551.22
2022-10-14T11:49:54.171Z,98553.69
2022-10-14T11:52:28.740Z,98550.72
2022-10-14T11:55:09.742Z,98552.13
2022-10-14T11:57:44.780Z,98556.28
2022-10-14T12:00:30.733Z,98547.03
2022-10-14T12:03:22.325Z,98544.84
2022-10-14T12:05:56.938Z,98541.91
2022-10-14T12:08:38.233Z,98538.91
2022-10-14T12:11:06.726Z,98541.16
2022-10-14T12:13:39.488Z,98540.09
2022-10-14T12:16:07.754Z,98534.63
2022-10-14T12:21:28.319Z,98533.06
2022-10-14T12:24:06.639Z,98534.72
2022-10-14T12:26:33.539Z,98528.44
2022-10-14T12:29:03.629Z,98526.28
2022-10-14T12:31:39.946Z,98529.84
2022-10-14T12:34:15.509Z,98526.59
2022-10-14T12:36:46.515Z,98527.22
2022-10-14T12:39:19.203Z,98527.78
2022-10-14T12:42:02.316Z,98518.50
2022-10-14T12:44:32.668Z,98526.47
2022-10-14T12:46:59.662Z,98523.50
2022-10-14T12:49:30.302Z,98523.84
2022-10-14T12:51:59.201Z,98515.38
2022-10-14T12:54:26.223Z,98513.25
2022-10-14T12:57:03.096Z,98516.28
2022-10-14T12:59:32.067Z,98509.53
2022-10-14T13:02:04.960Z,98501.91
2022-10-14T13:04:31.977Z,98500.31
2022-10-14T13:07:38.820Z,98514.59
2022-10-14T13:10:26.999Z,98505.03
2022-10-14T13:12:54.102Z,98501.84
2022-10-14T13:15:48.843Z,98496.69
2022-10-14T13:18:55.420Z,98507.97
2022-10-14T13:21:37.355Z,98505.81
2022-10-14T13:24:21.304Z,98501.78
2022-10-14T13:26:51.349Z,98506.75
2022-10-14T13:29:21.256Z,98504.59
2022-10-14T13:31:57.087Z,98509.84
2022-10-14T13:34:29.993Z,98502.19
2022-10-14T13:37:28.331Z,98500.06
2022-10-14T13:39:55.776Z,98502.50
2022-10-14T13:42:29.178Z,98497.41
2022-10-14T13:45:07.254Z,98499.31
2022-10-14T13:47:34.425Z,98501.53
2022-10-14T13:50:01.799Z,98498.56
2022-10-14T13:52:28.795Z,98496.66
2022-10-14T13:55:18.408Z,98501.84
2022-10-14T13:58:18.144Z,98498.03
2022-10-14T14:00:56.548Z,98490.66
2022-10-14T14:03:26.082Z,98495.31
2022-10-14T14:05:53.531Z,98501.63
2022-10-14T14:08:46.999Z,98491.50
2022-10-14T14:11:21.982Z,98490.44
2022-10-14T14:14:01.697Z,98493.16
2022-10-14T14:16:33.500Z,98497.53
2022-10-14T14:19:08.371Z,98494.25
2022-10-14T14:21:36.076Z,98491.22
2022-10-14T14:24:03.043Z,98487.44
2022-10-14T14:26:34.549Z,98483.84
2022-10-14T14:29:05.182Z,98484.97
2022-10-14T14:32:01.469Z,98487.44
2022-10-14T14:34:20.765Z,98489.09
2022-10-14T14:36:51.852Z,98487.44
2022-10-14T14:39:27.602Z,98492.91
2022-10-14T14:41:56.193Z,98488.50
2022-10-14T14:44:26.057Z,98482.22
2022-10-14T14:46:55.327Z,98483.28
2022-10-14T14:49:33.433Z,98481.41
2022-10-14T14:52:00.740Z,98487.94
2022-10-14T14:54:29.039Z,98482.47
2022-10-14T14:57:05.870Z,98476.41
2022-10-14T14:59:37.800Z,98476.41
2022-10-14T15:02:11.457Z,98470.94
2022-10-14T15:04:38.520Z,98478.56
2022-10-14T15:07:15.325Z,98480.47
2022-10-14T15:09:53.524Z,98471.69
2022-10-14T15:12:25.443Z,98472.50
2022-10-14T15:14:54.181Z,98488.09
2022-10-14T15:17:38.104Z,98475.53
2022-10-14T15:20:05.180Z,98480.16
2022-10-14T15:22:38.888Z,98482.91
2022-10-14T15:25:14.596Z,98485.63
2022-10-14T15:27:46.392Z,98478.50
2022-10-14T15:30:27.662Z,98479.56
2022-10-14T15:33:06.304Z,98483.97
2022-10-14T15:35:33.313Z,98485.03
2022-10-14T15:38:00.219Z,98488.00
2022-10-14T15:40:29.381Z,98481.75
2022-10-14T15:42:56.399Z,98476.50
2022-10-14T15:45:23.604Z,98483.88
2022-10-14T15:50:25.312Z,98488.53
2022-10-14T15:52:53.669Z,98488.75
2022-10-14T15:55:23.013Z,98492.31
2022-10-14T15:57:51.361Z,98490.69
2022-10-14T16:00:19.713Z,98485.47
2022-10-14T16:02:49.732Z,98496.41
2022-10-14T16:05:20.749Z,98491.16
2022-10-14T16:07:48.666Z,98495.81
2022-10-14T16:10:17.259Z,98491.44
2022-10-14T16:12:44.398Z,98484.03
2022-10-14T16:15:27.556Z,98482.41
2022-10-14T16:17:54.485Z,98482.66
2022-10-14T16:20:21.810Z,98479.91
2022-10-14T16:22:49.011Z,98491.88
2022-10-14T16:25:20.867Z,98490.22
2022-10-14T16:27:47.930Z,98494.63
2022-10-14T16:30:14.948Z,98495.69
2022-10-14T16:32:41.938Z,98498.69
2022-10-14T16:35:09.744Z,98496.19
2022-10-14T16:37:38.368Z,98492.63
2022-10-14T16:40:06.268Z,98493.47
2022-10-14T16:42:33.280Z,98494.53
2022-10-14T16:45:00.157Z,98494.53
2022-10-14T16:47:28.445Z,98492.06
2022-10-14T16:49:55.315Z,98492.31
2022-10-14T16:52:22.572Z,98489.56
2022-10-14T16:54:49.729Z,98494.19
2022-10-14T16:57:16.700Z,98495.88
2022-10-14T16:59:45.892Z,98492.31
2022-10-14T17:02:14.838Z,98497.16
2022-10-14T17:04:42.601Z,98493.38
2022-10-14T17:07:09.961Z,98496.09
2022-10-14T17:09:37.006Z,98493.88
2022-10-14T17:12:06.782Z,98499.34
2022-10-14T17:14:36.509Z,98492.22
2022-10-14T17:17:04.247Z,98494.94
2022-10-14T17:19:31.394Z,98497.69
2022-10-14T17:21:58.898Z,98494.38
2022-10-14T17:24:26.295Z,98494.38
2022-10-14T17:26:53.282Z,98492.72
2022-10-14T17:29:20.748Z,98492.72
2022-10-14T17:31:47.910Z,98500.09
2022-10-14T17:34:14.893Z,98498.19
2022-10-14T17:36:41.975Z,98495.69
2022-10-14T17:39:16.363Z,98496.75
2022-10-14T17:41:48.423Z,98504.16
2022-10-14T17:44:15.358Z,98497.84
2022-10-14T17:46:42.482Z,98502.50
2022-10-14T17:49:12.727Z,98500.00
2022-10-14T17:51:39.740Z,98507.13
2022-10-14T17:54:08.124Z,98499.16
2022-10-14T17:56:36.195Z,98504.63
2022-10-14T17:59:05.215Z,98490.97
2022-10-14T18:01:37.710Z,98502.97
2022-10-14T18:04:17.488Z,98490.41
2022-10-14T18:06:45.084Z,98490.41
2022-10-14T18:09:12.201Z,98490.41
2022-10-14T18:12:07.235Z,98489.56
2022-10-14T18:14:28.442Z,98488.72
2022-10-14T18:16:55.410Z,98483.28
2022-10-14T18:19:22.345Z,98491.47
2022-10-14T18:21:49.394Z,98481.84
2022-10-14T18:24:16.333Z,98480.78
2022-10-14T18:26:43.323Z,98490.88
2022-10-14T18:29:10.348Z,98488.97
2022-10-14T18:31:37.625Z,98491.97
2022-10-14T18:34:04.680Z,98493.03
2022-10-14T18:36:33.284Z,98492.22
2022-10-14T18:39:02.082Z,98488.41
2022-10-14T18:41:29.462Z,98484.84
2022-10-14T18:43:58.272Z,98492.44
2022-10-14T18:46:27.947Z,98496.00
2022-10-14T18:48:56.746Z,98490.53
2022-10-14T18:51:25.990Z,98497.91
2022-10-14T18:53:55.306Z,98487.25
2022-10-14T18:56:27.709Z,98494.59
2022-10-14T19:01:37.500Z,98495.69
2022-10-14T19:04:05.786Z,98499.47
2022-10-14T19:06:33.587Z,98504.09
2022-10-14T19:09:01.998Z,98492.34
2022-10-14T19:11:30.737Z,98494.84
2022-10-14T19:13:58.381Z,98491.28
2022-10-14T19:16:27.094Z,98502.44
2022-10-14T19:18:58.698Z,98497.56
2022-10-14T19:21:30.072Z,98492.34
2022-10-14T19:24:00.144Z,98494.25
2022-10-14T19:26:31.293Z,98487.16
2022-10-14T19:28:59.199Z,98487.16
2022-10-14T19:31:27.961Z,98491.78
2022-10-14T19:33:55.286Z,98492.63
2022-10-14T19:36:23.242Z,98490.72
2022-10-14T19:38:55.018Z,98485.25
2022-10-14T19:41:22.006Z,98491.78
2022-10-14T19:43:48.958Z,98487.38
2022-10-14T19:46:16.004Z,98490.13
2022-10-14T19:48:42.990Z,98478.13
2022-10-14T19:51:10.435Z,98477.28
2022-10-14T19:53:38.466Z,98478.34
2022-10-14T19:56:09.324Z,98474.78
2022-10-14T19:58:38.594Z,98480.03
2022-10-14T20:01:09.316Z,98483.81
2022-10-14T20:03:36.675Z,98485.72
2022-10-14T20:06:04.002Z,98485.72
2022-10-14T20:08:53.816Z,98485.72
2022-10-14T20:11:23.585Z,98488.44
2022-10-14T20:13:50.804Z,98483.81
2022-10-14T20:16:18.000Z,98488.44
2022-10-14T20:18:45.023Z,98485.72
2022-10-14T20:21:13.243Z,98484.06
2022-10-14T20:23:40.293Z,98483.25
2022-10-14T20:26:08.904Z,98487.88
2022-10-14T20:28:36.391Z,98484.56
2022-10-14T20:31:06.038Z,98480.75
2022-10-14T20:33:33.011Z,98486.22
2022-10-14T20:36:04.618Z,98486.22
2022-10-14T20:38:31.697Z,98486.22
2022-10-14T20:41:06.230Z,98478.84
2022-10-14T20:43:33.211Z,98485.38
2022-10-14T20:46:00.344Z,98474.47
2022-10-14T20:48:27.385Z,98468.16
2022-10-14T20:50:54.414Z,98479.09
2022-10-14T20:53:21.406Z,98481.81
2022-10-14T20:55:48.415Z,98475.78
2022-10-14T20:58:15.433Z,98475.78
2022-10-14T21:00:42.406Z,98477.44
2022-10-14T21:03:09.351Z,98469.22
2022-10-14T21:05:37.697Z,98467.34
2022-10-14T21:08:05.235Z,98463.78
2022-10-14T21:10:32.263Z,98464.03
2022-10-14T21:12:59.886Z,98458.31
2022-10-14T21:15:27.190Z,98455.00
2022-10-14T21:17:54.206Z,98456.91
2022-10-14T21:20:21.177Z,98450.63
2022-10-14T21:22:48.131Z,98456.06
2022-10-14T21:25:15.219Z,98457.16
2022-10-14T21:27:42.139Z,98450.84
2022-10-14T21:30:09.822Z,98455.25
2022-10-14T21:32:36.904Z,98451.69
2022-10-14T21:35:04.139Z,98441.81
2022-10-14T21:37:31.122Z,98445.66
2022-10-14T21:39:58.157Z,98440.19
2022-10-14T21:42:25.298Z,98444.00
2022-10-14T21:44:52.523Z,98440.19
2022-10-14T21:47:19.535Z,98441.25
2022-10-14T21:49:47.108Z,98441.81
2022-10-14T21:52:14.181Z,98447.28
2022-10-14T21:54:41.135Z,98434.72
2022-10-14T21:57:08.149Z,98438.53
2022-10-14T21:59:35.133Z,98433.91
2022-10-14T22:02:02.138Z,98432.22
2022-10-14T22:04:30.507Z,98430.31
2022-10-14T22:07:00.852Z,98428.91
2022-10-14T22:09:27.910Z,98430.00
2022-10-14T22:11:54.876Z,98429.16
2022-10-14T22:14:21.879Z,98423.94
2022-10-14T22:16:48.916Z,98423.09
2022-10-14T22:19:16.041Z,98425.00
2022-10-14T22:21:43.605Z,98419.81
2022-10-14T22:24:10.745Z,98425.28
2022-10-14T22:26:38.202Z,98420.88
2022-10-14T22:29:07.149Z,98421.94
2022-10-14T22:31:34.453Z,98421.94
2022-10-14T22:34:02.310Z,98423.00
2022-10-14T22:36:29.488Z,98421.94
2022-10-14T22:38:57.036Z,98418.16
2022-10-14T22:41:24.247Z,98415.66
2022-10-14T22:43:52.779Z,98422.78
2022-10-14T22:46:21.432Z,98414.81
2022-10-14T22:48:48.998Z,98418.66
2022-10-14T22:51:17.357Z,98410.47
2022-10-14T22:53:44.708Z,98418.66
2022-10-14T22:56:13.652Z,98411.53
2022-10-14T22:58:40.753Z,98412.59
2022-10-14T23:01:14.640Z,98413.66
2022-10-14T23:03:41.773Z,98414.75
2022-10-14T23:06:10.712Z,98409.53
2022-10-14T23:08:37.739Z,98413.09
2022-10-14T23:11:05.044Z,98399.44
2022-10-14T23:13:32.187Z,98402.41
2022-10-14T23:16:00.240Z,98398.84
2022-10-14T23:18:27.936Z,98402.63
2022-10-14T23:20:55.075Z,98391.97
2022-10-14T23:23:22.112Z,98391.97
2022-10-14T23:25:49.115Z,98391.16
2022-10-14T23:28:16.129Z,98391.97
2022-10-14T23:30:43.120Z,98392.81
2022-10-14T23:33:11.977Z,98391.16
2022-10-14T23:35:39.304Z,98399.91
2022-10-14T23:38:06.332Z,98384.84
2022-10-14T23:40:33.333Z,98383.78
2022-10-14T23:43:00.285Z,98391.97
2022-10-14T23:45:27.273Z,98384.03
2022-10-14T23:47:54.257Z,98384.03
2022-10-14T23:50:21.227Z,98387.81
2022-10-14T23:52:48.272Z,98393.28
2022-10-14T23:55:15.317Z,98388.09
2022-10-14T23:57:42.281Z,98390.56
